sensor_id;sensor_type;location;lat;lon;timestamp;P1;durP1;ratioP1;P2;durP2;ratioP2
84309;SDS011;74488;49.036;11.472;2024-03-08T00:00:39;32.90;;;17.98;;
84309;SDS011;74488;49.036;11.472;2024-03-08T00:01:43;32.20;;;21.75;;
84309;SDS011;74488;49.036;11.472;2024-03-08T00:02:46;30.52;;;17.77;;
84309;SDS011;74488;49.036;11.472;2024-03-08T00:03:49;29.25;;;20.45;;
84309;SDS011;74488;49.036;11.472;2024-03-08T00:04:50;28.45;;;19.10;;
84309;SDS011;74488;49.036;11.472;2024-03-08T00:05:52;30.63;;;19.08;;
84309;SDS011;74488;49.036;11.472;2024-03-08T00:06:53;31.13;;;18.50;;
84309;SDS011;74488;49.036;11.472;2024-03-08T00:07:55;33.88;;;19.42;;
84309;SDS011;74488;49.036;11.472;2024-03-08T00:08:56;30.20;;;19.08;;
84309;SDS011;74488;49.036;11.472;2024-03-08T00:09:58;30.48;;;18.90;;
84309;SDS011;74488;49.036;11.472;2024-03-08T00:11:00;30.23;;;20.65;;
84309;SDS011;74488;49.036;11.472;2024-03-08T00:12:01;31.60;;;20.33;;
84309;SDS011;74488;49.036;11.472;2024-03-08T00:13:03;29.08;;;19.92;;
84309;SDS011;74488;49.036;11.472;2024-03-08T00:14:05;27.92;;;18.38;;
84309;SDS011;74488;49.036;11.472;2024-03-08T00:15:09;33.28;;;21.42;;
84309;SDS011;74488;49.036;11.472;2024-03-08T00:16:12;31.08;;;18.25;;
84309;SDS011;74488;49.036;11.472;2024-03-08T00:17:13;33.95;;;20.58;;
84309;SDS011;74488;49.036;11.472;2024-03-08T00:18:16;32.70;;;21.23;;
84309;SDS011;74488;49.036;11.472;2024-03-08T00:19:18;32.67;;;21.25;;
84309;SDS011;74488;49.036;11.472;2024-03-08T00:20:19;27.05;;;18.00;;
84309;SDS011;74488;49.036;11.472;2024-03-08T00:21:21;30.90;;;20.05;;
84309;SDS011;74488;49.036;11.472;2024-03-08T00:22:23;30.40;;;18.48;;
84309;SDS011;74488;49.036;11.472;2024-03-08T00:23:24;31.92;;;20.45;;
84309;SDS011;74488;49.036;11.472;2024-03-08T00:24:25;28.02;;;19.13;;
84309;SDS011;74488;49.036;11.472;2024-03-08T00:25:27;32.80;;;20.58;;
84309;SDS011;74488;49.036;11.472;2024-03-08T00:26:29;31.35;;;19.00;;
84309;SDS011;74488;49.036;11.472;2024-03-08T00:27:31;33.83;;;18.88;;
84309;SDS011;74488;49.036;11.472;2024-03-08T00:28:32;23.67;;;17.63;;
84309;SDS011;74488;49.036;11.472;2024-03-08T00:29:35;32.55;;;19.30;;
84309;SDS011;74488;49.036;11.472;2024-03-08T00:30:37;32.17;;;19.77;;
84309;SDS011;74488;49.036;11.472;2024-03-08T00:31:38;32.83;;;20.02;;
84309;SDS011;74488;49.036;11.472;2024-03-08T00:32:40;36.10;;;21.35;;
84309;SDS011;74488;49.036;11.472;2024-03-08T00:33:42;31.23;;;20.35;;
84309;SDS011;74488;49.036;11.472;2024-03-08T00:34:44;35.22;;;20.92;;
84309;SDS011;74488;49.036;11.472;2024-03-08T00:35:45;32.10;;;21.30;;
84309;SDS011;74488;49.036;11.472;2024-03-08T00:36:47;33.47;;;21.65;;
84309;SDS011;74488;49.036;11.472;2024-03-08T00:37:50;30.88;;;19.45;;
84309;SDS011;74488;49.036;11.472;2024-03-08T00:38:51;32.33;;;21.10;;
84309;SDS011;74488;49.036;11.472;2024-03-08T00:39:53;33.53;;;22.13;;
84309;SDS011;74488;49.036;11.472;2024-03-08T00:40:55;32.85;;;20.55;;
84309;SDS011;74488;49.036;11.472;2024-03-08T00:41:57;30.33;;;19.30;;
84309;SDS011;74488;49.036;11.472;2024-03-08T00:42:59;33.50;;;21.58;;
84309;SDS011;74488;49.036;11.472;2024-03-08T00:44:00;30.05;;;22.60;;
84309;SDS011;74488;49.036;11.472;2024-03-08T00:45:02;30.42;;;20.92;;
84309;SDS011;74488;49.036;11.472;2024-03-08T00:46:04;29.27;;;21.45;;
84309;SDS011;74488;49.036;11.472;2024-03-08T00:47:05;28.13;;;19.30;;
84309;SDS011;74488;49.036;11.472;2024-03-08T00:48:07;34.55;;;21.85;;
84309;SDS011;74488;49.036;11.472;2024-03-08T00:49:09;33.33;;;19.83;;
84309;SDS011;74488;49.036;11.472;2024-03-08T00:50:10;35.63;;;22.35;;
84309;SDS011;74488;49.036;11.472;2024-03-08T00:51:12;33.67;;;21.83;;
84309;SDS011;74488;49.036;11.472;2024-03-08T00:52:14;35.63;;;21.20;;
84309;SDS011;74488;49.036;11.472;2024-03-08T00:53:15;32.45;;;19.17;;
84309;SDS011;74488;49.036;11.472;2024-03-08T00:54:18;35.75;;;22.23;;
84309;SDS011;74488;49.036;11.472;2024-03-08T00:55:19;30.45;;;20.75;;
84309;SDS011;74488;49.036;11.472;2024-03-08T00:56:21;33.03;;;21.85;;
84309;SDS011;74488;49.036;11.472;2024-03-08T00:57:22;39.53;;;22.58;;
84309;SDS011;74488;49.036;11.472;2024-03-08T00:58:24;32.22;;;20.85;;
84309;SDS011;74488;49.036;11.472;2024-03-08T00:59:25;33.80;;;21.25;;
84309;SDS011;74488;49.036;11.472;2024-03-08T01:00:27;32.55;;;19.85;;
84309;SDS011;74488;49.036;11.472;2024-03-08T01:01:29;31.88;;;21.75;;
84309;SDS011;74488;49.036;11.472;2024-03-08T01:02:30;37.40;;;22.63;;
84309;SDS011;74488;49.036;11.472;2024-03-08T01:03:32;36.63;;;20.83;;
84309;SDS011;74488;49.036;11.472;2024-03-08T01:04:35;28.95;;;21.00;;
84309;SDS011;74488;49.036;11.472;2024-03-08T01:05:37;30.45;;;19.90;;
84309;SDS011;74488;49.036;11.472;2024-03-08T01:06:38;30.75;;;20.17;;
84309;SDS011;74488;49.036;11.472;2024-03-08T01:07:40;30.35;;;20.55;;
84309;SDS011;74488;49.036;11.472;2024-03-08T01:08:41;30.33;;;19.60;;
84309;SDS011;74488;49.036;11.472;2024-03-08T01:09:43;30.08;;;20.67;;
84309;SDS011;74488;49.036;11.472;2024-03-08T01:10:45;32.50;;;20.05;;
84309;SDS011;74488;49.036;11.472;2024-03-08T01:11:46;31.63;;;21.40;;
84309;SDS011;74488;49.036;11.472;2024-03-08T01:12:48;29.70;;;20.35;;
84309;SDS011;74488;49.036;11.472;2024-03-08T01:13:50;34.30;;;19.25;;
84309;SDS011;74488;49.036;11.472;2024-03-08T01:14:52;32.05;;;20.00;;
84309;SDS011;74488;49.036;11.472;2024-03-08T01:15:54;31.17;;;18.63;;
84309;SDS011;74488;49.036;11.472;2024-03-08T01:16:55;32.83;;;22.15;;
84309;SDS011;74488;49.036;11.472;2024-03-08T01:17:57;31.27;;;19.25;;
84309;SDS011;74488;49.036;11.472;2024-03-08T01:19:00;33.60;;;20.48;;
84309;SDS011;74488;49.036;11.472;2024-03-08T01:20:02;37.30;;;21.88;;
84309;SDS011;74488;49.036;11.472;2024-03-08T01:21:04;33.65;;;21.17;;
84309;SDS011;74488;49.036;11.472;2024-03-08T01:22:06;32.60;;;21.85;;
84309;SDS011;74488;49.036;11.472;2024-03-08T01:23:08;33.88;;;20.63;;
84309;SDS011;74488;49.036;11.472;2024-03-08T01:24:10;32.60;;;20.48;;
84309;SDS011;74488;49.036;11.472;2024-03-08T01:25:11;34.00;;;20.98;;
84309;SDS011;74488;49.036;11.472;2024-03-08T01:26:13;29.58;;;18.98;;
84309;SDS011;74488;49.036;11.472;2024-03-08T01:27:16;31.88;;;20.90;;
84309;SDS011;74488;49.036;11.472;2024-03-08T01:28:17;30.45;;;18.98;;
84309;SDS011;74488;49.036;11.472;2024-03-08T01:29:19;35.88;;;21.90;;
84309;SDS011;74488;49.036;11.472;2024-03-08T01:30:21;32.70;;;19.95;;
84309;SDS011;74488;49.036;11.472;2024-03-08T01:31:22;33.55;;;21.48;;
84309;SDS011;74488;49.036;11.472;2024-03-08T01:32:24;35.33;;;19.98;;
84309;SDS011;74488;49.036;11.472;2024-03-08T01:33:26;34.20;;;22.58;;
84309;SDS011;74488;49.036;11.472;2024-03-08T01:34:28;28.23;;;19.85;;
84309;SDS011;74488;49.036;11.472;2024-03-08T01:35:30;34.60;;;20.70;;
84309;SDS011;74488;49.036;11.472;2024-03-08T01:36:32;33.33;;;22.45;;
84309;SDS011;74488;49.036;11.472;2024-03-08T01:37:33;36.53;;;22.75;;
84309;SDS011;74488;49.036;11.472;2024-03-08T01:38:35;35.08;;;19.77;;
84309;SDS011;74488;49.036;11.472;2024-03-08T01:39:37;33.90;;;22.70;;
84309;SDS011;74488;49.036;11.472;2024-03-08T01:40:39;30.02;;;21.20;;
84309;SDS011;74488;49.036;11.472;2024-03-08T01:41:42;34.63;;;19.83;;
84309;SDS011;74488;49.036;11.472;2024-03-08T01:42:43;33.45;;;21.92;;
84309;SDS011;74488;49.036;11.472;2024-03-08T01:43:46;30.80;;;20.15;;
84309;SDS011;74488;49.036;11.472;2024-03-08T01:44:47;30.70;;;20.35;;
84309;SDS011;74488;49.036;11.472;2024-03-08T01:45:49;32.50;;;20.48;;
84309;SDS011;74488;49.036;11.472;2024-03-08T01:46:51;33.47;;;21.27;;
84309;SDS011;74488;49.036;11.472;2024-03-08T01:47:54;37.78;;;22.67;;
84309;SDS011;74488;49.036;11.472;2024-03-08T01:48:56;32.20;;;19.38;;
84309;SDS011;74488;49.036;11.472;2024-03-08T01:50:01;35.00;;;19.48;;
84309;SDS011;74488;49.036;11.472;2024-03-08T01:51:04;32.72;;;21.25;;
84309;SDS011;74488;49.036;11.472;2024-03-08T01:52:06;33.70;;;22.00;;
84309;SDS011;74488;49.036;11.472;2024-03-08T01:53:08;32.92;;;21.85;;
84309;SDS011;74488;49.036;11.472;2024-03-08T01:54:14;32.38;;;20.67;;
84309;SDS011;74488;49.036;11.472;2024-03-08T01:55:18;32.30;;;19.67;;
84309;SDS011;74488;49.036;11.472;2024-03-08T01:56:19;34.80;;;19.50;;
84309;SDS011;74488;49.036;11.472;2024-03-08T01:57:21;30.00;;;19.40;;
84309;SDS011;74488;49.036;11.472;2024-03-08T01:58:23;29.73;;;20.00;;
84309;SDS011;74488;49.036;11.472;2024-03-08T01:59:25;32.75;;;19.02;;
84309;SDS011;74488;49.036;11.472;2024-03-08T02:00:27;39.22;;;22.95;;
84309;SDS011;74488;49.036;11.472;2024-03-08T02:01:31;37.58;;;22.33;;
84309;SDS011;74488;49.036;11.472;2024-03-08T02:02:34;33.92;;;23.13;;
84309;SDS011;74488;49.036;11.472;2024-03-08T02:03:38;28.48;;;19.38;;
84309;SDS011;74488;49.036;11.472;2024-03-08T02:04:40;32.60;;;21.05;;
84309;SDS011;74488;49.036;11.472;2024-03-08T02:05:41;31.40;;;18.83;;
84309;SDS011;74488;49.036;11.472;2024-03-08T02:06:43;33.08;;;21.02;;
84309;SDS011;74488;49.036;11.472;2024-03-08T02:07:46;30.23;;;18.88;;
84309;SDS011;74488;49.036;11.472;2024-03-08T02:08:47;33.58;;;21.50;;
84309;SDS011;74488;49.036;11.472;2024-03-08T02:09:50;31.50;;;20.77;;
84309;SDS011;74488;49.036;11.472;2024-03-08T02:10:52;33.97;;;22.05;;
84309;SDS011;74488;49.036;11.472;2024-03-08T02:11:54;31.23;;;21.92;;
84309;SDS011;74488;49.036;11.472;2024-03-08T02:12:57;31.90;;;21.48;;
84309;SDS011;74488;49.036;11.472;2024-03-08T02:13:59;32.45;;;19.95;;
84309;SDS011;74488;49.036;11.472;2024-03-08T02:15:01;33.72;;;20.08;;
84309;SDS011;74488;49.036;11.472;2024-03-08T02:16:02;35.22;;;22.52;;
84309;SDS011;74488;49.036;11.472;2024-03-08T02:17:05;28.85;;;19.52;;
84309;SDS011;74488;49.036;11.472;2024-03-08T02:18:07;30.67;;;20.85;;
84309;SDS011;74488;49.036;11.472;2024-03-08T02:19:09;36.53;;;24.52;;
84309;SDS011;74488;49.036;11.472;2024-03-08T02:20:11;32.17;;;19.92;;
84309;SDS011;74488;49.036;11.472;2024-03-08T02:21:16;32.78;;;19.38;;
84309;SDS011;74488;49.036;11.472;2024-03-08T02:22:22;33.08;;;20.00;;
84309;SDS011;74488;49.036;11.472;2024-03-08T02:23:24;32.80;;;21.30;;
84309;SDS011;74488;49.036;11.472;2024-03-08T02:24:28;31.70;;;23.40;;
84309;SDS011;74488;49.036;11.472;2024-03-08T02:25:31;35.20;;;22.52;;
84309;SDS011;74488;49.036;11.472;2024-03-08T02:26:33;34.25;;;20.77;;
84309;SDS011;74488;49.036;11.472;2024-03-08T02:27:34;36.08;;;22.80;;
84309;SDS011;74488;49.036;11.472;2024-03-08T02:28:36;33.28;;;22.42;;
84309;SDS011;74488;49.036;11.472;2024-03-08T02:29:38;31.33;;;21.98;;
84309;SDS011;74488;49.036;11.472;2024-03-08T02:30:42;35.60;;;22.42;;
84309;SDS011;74488;49.036;11.472;2024-03-08T02:31:43;35.55;;;21.02;;
84309;SDS011;74488;49.036;11.472;2024-03-08T02:32:45;37.58;;;22.50;;
84309;SDS011;74488;49.036;11.472;2024-03-08T02:33:46;31.63;;;20.67;;
84309;SDS011;74488;49.036;11.472;2024-03-08T02:34:49;37.42;;;21.02;;
84309;SDS011;74488;49.036;11.472;2024-03-08T02:35:50;36.63;;;23.58;;
84309;SDS011;74488;49.036;11.472;2024-03-08T02:36:52;36.03;;;21.75;;
84309;SDS011;74488;49.036;11.472;2024-03-08T02:37:54;34.70;;;21.92;;
84309;SDS011;74488;49.036;11.472;2024-03-08T02:38:55;37.05;;;23.05;;
84309;SDS011;74488;49.036;11.472;2024-03-08T02:39:57;30.50;;;21.15;;
84309;SDS011;74488;49.036;11.472;2024-03-08T02:40:58;35.25;;;22.02;;
84309;SDS011;74488;49.036;11.472;2024-03-08T02:42:00;32.88;;;22.45;;
84309;SDS011;74488;49.036;11.472;2024-03-08T02:43:01;35.13;;;21.85;;
84309;SDS011;74488;49.036;11.472;2024-03-08T02:44:03;35.75;;;24.00;;
84309;SDS011;74488;49.036;11.472;2024-03-08T02:45:05;40.38;;;22.40;;
84309;SDS011;74488;49.036;11.472;2024-03-08T02:46:07;35.83;;;22.30;;
84309;SDS011;74488;49.036;11.472;2024-03-08T02:47:09;36.65;;;21.85;;
84309;SDS011;74488;49.036;11.472;2024-03-08T02:48:11;33.65;;;23.00;;
84309;SDS011;74488;49.036;11.472;2024-03-08T02:49:13;32.70;;;20.48;;
84309;SDS011;74488;49.036;11.472;2024-03-08T02:50:15;35.33;;;22.13;;
84309;SDS011;74488;49.036;11.472;2024-03-08T02:51:17;36.88;;;22.17;;
84309;SDS011;74488;49.036;11.472;2024-03-08T02:52:19;34.05;;;23.20;;
84309;SDS011;74488;49.036;11.472;2024-03-08T02:53:22;37.08;;;22.60;;
84309;SDS011;74488;49.036;11.472;2024-03-08T02:54:25;35.10;;;23.42;;
84309;SDS011;74488;49.036;11.472;2024-03-08T02:55:27;40.63;;;22.30;;
84309;SDS011;74488;49.036;11.472;2024-03-08T02:56:28;35.33;;;22.25;;
84309;SDS011;74488;49.036;11.472;2024-03-08T02:57:31;33.22;;;21.58;;
84309;SDS011;74488;49.036;11.472;2024-03-08T02:58:33;33.45;;;22.98;;
84309;SDS011;74488;49.036;11.472;2024-03-08T02:59:34;40.35;;;24.13;;
84309;SDS011;74488;49.036;11.472;2024-03-08T03:00:36;36.05;;;22.40;;
84309;SDS011;74488;49.036;11.472;2024-03-08T03:01:38;35.60;;;22.02;;
84309;SDS011;74488;49.036;11.472;2024-03-08T03:02:40;36.75;;;23.35;;
84309;SDS011;74488;49.036;11.472;2024-03-08T03:03:41;35.88;;;21.77;;
84309;SDS011;74488;49.036;11.472;2024-03-08T03:04:43;31.75;;;21.58;;
84309;SDS011;74488;49.036;11.472;2024-03-08T03:05:45;36.05;;;22.17;;
84309;SDS011;74488;49.036;11.472;2024-03-08T03:07:51;31.90;;;19.90;;
84309;SDS011;74488;49.036;11.472;2024-03-08T03:08:53;35.40;;;21.17;;
84309;SDS011;74488;49.036;11.472;2024-03-08T03:09:55;32.70;;;22.33;;
84309;SDS011;74488;49.036;11.472;2024-03-08T03:10:56;35.80;;;21.23;;
84309;SDS011;74488;49.036;11.472;2024-03-08T03:12:00;37.60;;;23.00;;
84309;SDS011;74488;49.036;11.472;2024-03-08T03:13:02;37.00;;;23.50;;
84309;SDS011;74488;49.036;11.472;2024-03-08T03:14:05;37.58;;;22.73;;
84309;SDS011;74488;49.036;11.472;2024-03-08T03:15:08;35.70;;;22.08;;
84309;SDS011;74488;49.036;11.472;2024-03-08T03:16:10;36.08;;;23.17;;
84309;SDS011;74488;49.036;11.472;2024-03-08T03:17:11;39.88;;;21.38;;
84309;SDS011;74488;49.036;11.472;2024-03-08T03:18:13;36.78;;;23.52;;
84309;SDS011;74488;49.036;11.472;2024-03-08T03:19:15;38.13;;;23.67;;
84309;SDS011;74488;49.036;11.472;2024-03-08T03:20:17;37.97;;;25.17;;
84309;SDS011;74488;49.036;11.472;2024-03-08T03:21:28;33.85;;;20.95;;
84309;SDS011;74488;49.036;11.472;2024-03-08T03:22:33;41.33;;;25.02;;
84309;SDS011;74488;49.036;11.472;2024-03-08T03:23:36;39.65;;;23.73;;
84309;SDS011;74488;49.036;11.472;2024-03-08T03:24:38;35.92;;;21.88;;
84309;SDS011;74488;49.036;11.472;2024-03-08T03:25:40;35.47;;;23.75;;
84309;SDS011;74488;49.036;11.472;2024-03-08T03:26:42;38.20;;;23.00;;
84309;SDS011;74488;49.036;11.472;2024-03-08T03:27:45;37.92;;;23.73;;
84309;SDS011;74488;49.036;11.472;2024-03-08T03:28:47;33.67;;;23.00;;
84309;SDS011;74488;49.036;11.472;2024-03-08T03:29:49;40.15;;;23.13;;
84309;SDS011;74488;49.036;11.472;2024-03-08T03:30:52;42.67;;;26.05;;
84309;SDS011;74488;49.036;11.472;2024-03-08T03:31:54;52.35;;;27.40;;
84309;SDS011;74488;49.036;11.472;2024-03-08T03:32:55;42.90;;;24.90;;
84309;SDS011;74488;49.036;11.472;2024-03-08T03:34:00;41.28;;;26.40;;
84309;SDS011;74488;49.036;11.472;2024-03-08T03:35:05;35.08;;;22.63;;
84309;SDS011;74488;49.036;11.472;2024-03-08T03:36:07;36.47;;;25.55;;
84309;SDS011;74488;49.036;11.472;2024-03-08T03:37:11;39.25;;;20.77;;
84309;SDS011;74488;49.036;11.472;2024-03-08T03:38:13;38.65;;;24.27;;
84309;SDS011;74488;49.036;11.472;2024-03-08T03:39:15;34.13;;;23.55;;
84309;SDS011;74488;49.036;11.472;2024-03-08T03:40:18;37.60;;;23.35;;
84309;SDS011;74488;49.036;11.472;2024-03-08T03:41:20;41.60;;;24.33;;
84309;SDS011;74488;49.036;11.472;2024-03-08T03:42:22;31.88;;;20.90;;
84309;SDS011;74488;49.036;11.472;2024-03-08T03:43:25;38.08;;;23.75;;
84309;SDS011;74488;49.036;11.472;2024-03-08T03:44:27;39.20;;;24.35;;
84309;SDS011;74488;49.036;11.472;2024-03-08T03:45:29;40.85;;;23.75;;
84309;SDS011;74488;49.036;11.472;2024-03-08T03:46:35;35.25;;;23.83;;
84309;SDS011;74488;49.036;11.472;2024-03-08T03:47:36;38.58;;;24.77;;
84309;SDS011;74488;49.036;11.472;2024-03-08T03:48:39;33.30;;;22.52;;
84309;SDS011;74488;49.036;11.472;2024-03-08T03:49:41;40.50;;;25.13;;
84309;SDS011;74488;49.036;11.472;2024-03-08T03:50:43;33.80;;;23.73;;
84309;SDS011;74488;49.036;11.472;2024-03-08T03:51:45;37.63;;;25.05;;
84309;SDS011;74488;49.036;11.472;2024-03-08T03:52:47;36.95;;;23.40;;
84309;SDS011;74488;49.036;11.472;2024-03-08T03:53:49;39.42;;;23.13;;
84309;SDS011;74488;49.036;11.472;2024-03-08T03:54:51;34.70;;;25.27;;
84309;SDS011;74488;49.036;11.472;2024-03-08T03:55:52;38.67;;;23.58;;
84309;SDS011;74488;49.036;11.472;2024-03-08T03:56:53;34.13;;;23.27;;
84309;SDS011;74488;49.036;11.472;2024-03-08T03:57:56;38.70;;;23.73;;
84309;SDS011;74488;49.036;11.472;2024-03-08T03:59:00;34.45;;;23.65;;
84309;SDS011;74488;49.036;11.472;2024-03-08T04:00:02;36.00;;;23.85;;
84309;SDS011;74488;49.036;11.472;2024-03-08T04:01:04;35.88;;;22.67;;
84309;SDS011;74488;49.036;11.472;2024-03-08T04:02:06;36.00;;;23.38;;
84309;SDS011;74488;49.036;11.472;2024-03-08T04:03:07;36.28;;;24.42;;
84309;SDS011;74488;49.036;11.472;2024-03-08T04:04:10;33.70;;;22.23;;
84309;SDS011;74488;49.036;11.472;2024-03-08T04:05:13;35.88;;;22.52;;
84309;SDS011;74488;49.036;11.472;2024-03-08T04:06:15;34.72;;;19.05;;
84309;SDS011;74488;49.036;11.472;2024-03-08T04:07:16;34.42;;;22.02;;
84309;SDS011;74488;49.036;11.472;2024-03-08T04:08:18;36.08;;;24.33;;
84309;SDS011;74488;49.036;11.472;2024-03-08T04:09:19;32.80;;;21.85;;
84309;SDS011;74488;49.036;11.472;2024-03-08T04:10:21;35.85;;;23.80;;
84309;SDS011;74488;49.036;11.472;2024-03-08T04:11:22;32.90;;;22.58;;
84309;SDS011;74488;49.036;11.472;2024-03-08T04:12:24;35.55;;;21.60;;
84309;SDS011;74488;49.036;11.472;2024-03-08T04:13:25;36.35;;;23.63;;
84309;SDS011;74488;49.036;11.472;2024-03-08T04:14:27;33.28;;;22.88;;
84309;SDS011;74488;49.036;11.472;2024-03-08T04:15:29;37.55;;;21.65;;
84309;SDS011;74488;49.036;11.472;2024-03-08T04:16:31;37.65;;;22.17;;
84309;SDS011;74488;49.036;11.472;2024-03-08T04:17:33;34.30;;;22.45;;
84309;SDS011;74488;49.036;11.472;2024-03-08T04:18:38;32.78;;;22.70;;
84309;SDS011;74488;49.036;11.472;2024-03-08T04:19:40;39.00;;;22.60;;
84309;SDS011;74488;49.036;11.472;2024-03-08T04:20:41;38.83;;;24.58;;
84309;SDS011;74488;49.036;11.472;2024-03-08T04:21:43;34.42;;;22.48;;
84309;SDS011;74488;49.036;11.472;2024-03-08T04:22:44;36.50;;;22.27;;
84309;SDS011;74488;49.036;11.472;2024-03-08T04:23:48;37.58;;;25.20;;
84309;SDS011;74488;49.036;11.472;2024-03-08T04:24:49;38.92;;;24.77;;
84309;SDS011;74488;49.036;11.472;2024-03-08T04:25:52;39.17;;;24.23;;
84309;SDS011;74488;49.036;11.472;2024-03-08T04:26:53;38.00;;;22.70;;
84309;SDS011;74488;49.036;11.472;2024-03-08T04:27:55;37.08;;;25.27;;
84309;SDS011;74488;49.036;11.472;2024-03-08T04:28:57;41.63;;;26.73;;
84309;SDS011;74488;49.036;11.472;2024-03-08T04:29:58;39.83;;;24.33;;
84309;SDS011;74488;49.036;11.472;2024-03-08T04:31:00;36.80;;;24.10;;
84309;SDS011;74488;49.036;11.472;2024-03-08T04:32:03;37.60;;;23.55;;
84309;SDS011;74488;49.036;11.472;2024-03-08T04:33:05;34.95;;;23.85;;
84309;SDS011;74488;49.036;11.472;2024-03-08T04:34:11;33.08;;;22.10;;
84309;SDS011;74488;49.036;11.472;2024-03-08T04:35:12;37.35;;;23.42;;
84309;SDS011;74488;49.036;11.472;2024-03-08T04:36:14;35.38;;;23.67;;
84309;SDS011;74488;49.036;11.472;2024-03-08T04:37:16;35.58;;;20.90;;
84309;SDS011;74488;49.036;11.472;2024-03-08T04:38:23;32.17;;;19.67;;
84309;SDS011;74488;49.036;11.472;2024-03-08T04:39:26;36.90;;;23.42;;
84309;SDS011;74488;49.036;11.472;2024-03-08T04:41:32;31.70;;;20.13;;
84309;SDS011;74488;49.036;11.472;2024-03-08T04:42:35;37.67;;;22.48;;
84309;SDS011;74488;49.036;11.472;2024-03-08T04:43:38;32.45;;;23.45;;
84309;SDS011;74488;49.036;11.472;2024-03-08T04:44:40;35.72;;;25.00;;
84309;SDS011;74488;49.036;11.472;2024-03-08T04:45:42;38.53;;;24.27;;
84309;SDS011;74488;49.036;11.472;2024-03-08T04:46:45;37.10;;;21.63;;
84309;SDS011;74488;49.036;11.472;2024-03-08T04:47:46;42.05;;;25.77;;
84309;SDS011;74488;49.036;11.472;2024-03-08T04:48:48;40.97;;;25.65;;
84309;SDS011;74488;49.036;11.472;2024-03-08T04:49:50;38.95;;;23.27;;
84309;SDS011;74488;49.036;11.472;2024-03-08T04:50:52;43.53;;;27.40;;
84309;SDS011;74488;49.036;11.472;2024-03-08T04:51:55;37.08;;;22.13;;
84309;SDS011;74488;49.036;11.472;2024-03-08T04:52:57;40.50;;;26.35;;
84309;SDS011;74488;49.036;11.472;2024-03-08T04:53:59;44.78;;;26.88;;
84309;SDS011;74488;49.036;11.472;2024-03-08T04:55:01;40.83;;;26.90;;
84309;SDS011;74488;49.036;11.472;2024-03-08T04:56:06;45.45;;;26.65;;
84309;SDS011;74488;49.036;11.472;2024-03-08T04:57:08;40.85;;;26.98;;
84309;SDS011;74488;49.036;11.472;2024-03-08T04:58:10;40.83;;;25.02;;
84309;SDS011;74488;49.036;11.472;2024-03-08T04:59:11;39.65;;;23.80;;
84309;SDS011;74488;49.036;11.472;2024-03-08T05:00:13;39.97;;;25.45;;
84309;SDS011;74488;49.036;11.472;2024-03-08T05:01:16;37.17;;;22.48;;
84309;SDS011;74488;49.036;11.472;2024-03-08T05:02:18;39.17;;;24.27;;
84309;SDS011;74488;49.036;11.472;2024-03-08T05:03:19;38.03;;;26.20;;
84309;SDS011;74488;49.036;11.472;2024-03-08T05:04:22;37.38;;;21.75;;
84309;SDS011;74488;49.036;11.472;2024-03-08T05:05:23;39.55;;;25.85;;
84309;SDS011;74488;49.036;11.472;2024-03-08T05:06:26;40.38;;;25.70;;
84309;SDS011;74488;49.036;11.472;2024-03-08T05:07:27;34.90;;;20.98;;
84309;SDS011;74488;49.036;11.472;2024-03-08T05:08:29;41.10;;;25.38;;
84309;SDS011;74488;49.036;11.472;2024-03-08T05:09:31;37.00;;;24.73;;
84309;SDS011;74488;49.036;11.472;2024-03-08T05:10:33;36.92;;;21.75;;
84309;SDS011;74488;49.036;11.472;2024-03-08T05:11:34;40.47;;;24.10;;
84309;SDS011;74488;49.036;11.472;2024-03-08T05:12:36;37.85;;;25.48;;
84309;SDS011;74488;49.036;11.472;2024-03-08T05:13:40;39.58;;;23.58;;
84309;SDS011;74488;49.036;11.472;2024-03-08T05:14:42;37.28;;;24.98;;
84309;SDS011;74488;49.036;11.472;2024-03-08T05:15:43;34.17;;;21.73;;
84309;SDS011;74488;49.036;11.472;2024-03-08T05:16:45;33.85;;;22.60;;
84309;SDS011;74488;49.036;11.472;2024-03-08T05:17:50;35.50;;;21.67;;
84309;SDS011;74488;49.036;11.472;2024-03-08T05:18:52;40.80;;;25.65;;
84309;SDS011;74488;49.036;11.472;2024-03-08T05:19:53;32.58;;;22.15;;
84309;SDS011;74488;49.036;11.472;2024-03-08T05:20:55;33.83;;;22.58;;
84309;SDS011;74488;49.036;11.472;2024-03-08T05:21:57;35.90;;;23.77;;
84309;SDS011;74488;49.036;11.472;2024-03-08T05:22:58;37.90;;;24.25;;
84309;SDS011;74488;49.036;11.472;2024-03-08T05:24:01;40.45;;;26.40;;
84309;SDS011;74488;49.036;11.472;2024-03-08T05:25:03;35.28;;;22.80;;
84309;SDS011;74488;49.036;11.472;2024-03-08T05:26:05;38.70;;;24.85;;
84309;SDS011;74488;49.036;11.472;2024-03-08T05:27:09;40.47;;;23.50;;
84309;SDS011;74488;49.036;11.472;2024-03-08T05:28:11;41.72;;;24.25;;
84309;SDS011;74488;49.036;11.472;2024-03-08T05:29:13;42.58;;;24.70;;
84309;SDS011;74488;49.036;11.472;2024-03-08T05:30:15;37.42;;;25.30;;
84309;SDS011;74488;49.036;11.472;2024-03-08T05:31:18;40.83;;;25.95;;
84309;SDS011;74488;49.036;11.472;2024-03-08T05:32:23;40.10;;;25.30;;
84309;SDS011;74488;49.036;11.472;2024-03-08T05:33:27;50.47;;;31.30;;
84309;SDS011;74488;49.036;11.472;2024-03-08T05:34:28;45.83;;;29.70;;
84309;SDS011;74488;49.036;11.472;2024-03-08T05:35:30;50.30;;;35.58;;
84309;SDS011;74488;49.036;11.472;2024-03-08T05:36:33;44.85;;;29.85;;
84309;SDS011;74488;49.036;11.472;2024-03-08T05:37:35;43.45;;;28.92;;
84309;SDS011;74488;49.036;11.472;2024-03-08T05:38:36;40.80;;;25.98;;
84309;SDS011;74488;49.036;11.472;2024-03-08T05:39:38;39.17;;;26.27;;
84309;SDS011;74488;49.036;11.472;2024-03-08T05:40:39;40.90;;;26.30;;
84309;SDS011;74488;49.036;11.472;2024-03-08T05:41:41;37.92;;;26.83;;
84309;SDS011;74488;49.036;11.472;2024-03-08T05:42:43;37.40;;;26.15;;
84309;SDS011;74488;49.036;11.472;2024-03-08T05:43:45;44.50;;;25.40;;
84309;SDS011;74488;49.036;11.472;2024-03-08T05:44:46;40.65;;;23.73;;
84309;SDS011;74488;49.036;11.472;2024-03-08T05:45:48;39.75;;;25.02;;
84309;SDS011;74488;49.036;11.472;2024-03-08T05:46:49;41.67;;;26.02;;
84309;SDS011;74488;49.036;11.472;2024-03-08T05:47:52;43.72;;;28.05;;
84309;SDS011;74488;49.036;11.472;2024-03-08T05:48:54;38.75;;;23.73;;
84309;SDS011;74488;49.036;11.472;2024-03-08T05:49:56;40.65;;;25.17;;
84309;SDS011;74488;49.036;11.472;2024-03-08T05:50:57;37.70;;;23.20;;
84309;SDS011;74488;49.036;11.472;2024-03-08T05:51:59;37.22;;;22.65;;
84309;SDS011;74488;49.036;11.472;2024-03-08T05:53:01;39.75;;;25.42;;
84309;SDS011;74488;49.036;11.472;2024-03-08T05:54:06;35.30;;;25.60;;
84309;SDS011;74488;49.036;11.472;2024-03-08T05:55:15;34.50;;;22.00;;
84309;SDS011;74488;49.036;11.472;2024-03-08T05:56:17;41.65;;;23.58;;
84309;SDS011;74488;49.036;11.472;2024-03-08T05:57:19;39.85;;;23.23;;
84309;SDS011;74488;49.036;11.472;2024-03-08T05:58:20;38.95;;;23.67;;
84309;SDS011;74488;49.036;11.472;2024-03-08T05:59:22;42.15;;;26.20;;
84309;SDS011;74488;49.036;11.472;2024-03-08T06:00:24;37.22;;;25.65;;